sensor_id;sensor_type;location;lat;lon;timestamp;pressure;altitude;pressure_sealevel;temperature;humidity
65659;BME280;60181;53.258;6.932;2022-11-20T00:01:13;101533.89;;;14.23;68.18
65659;BME280;60181;53.258;6.932;2022-11-20T00:05:28;101532.87;;;14.23;68.01
65659;BME280;60181;53.258;6.932;2022-11-20T00:09:56;101530.49;;;14.22;67.92
65659;BME280;60181;53.258;6.932;2022-11-20T00:14:24;101527.57;;;14.21;64.97
65659;BME280;60181;53.258;6.932;2022-11-20T00:18:52;101526.64;;;14.21;64.82
65659;BME280;60181;53.258;6.932;2022-11-20T00:23:20;101525.41;;;14.20;64.80
65659;BME280;60181;53.258;6.932;2022-11-20T00:27:48;101522.81;;;14.19;64.80
65659;BME280;60181;53.258;6.932;2022-11-20T00:32:16;101520.23;;;14.18;64.96
65659;BME280;60181;53.258;6.932;2022-11-20T00:36:44;101520.12;;;14.17;65.01
65659;BME280;60181;53.258;6.932;2022-11-20T00:41:13;101520.62;;;14.17;65.40
65659;BME280;60181;53.258;6.932;2022-11-20T00:45:40;101520.01;;;14.15;65.57
65659;BME280;60181;53.258;6.932;2022-11-20T00:50:08;101519.74;;;14.15;65.75
65659;BME280;60181;53.258;6.932;2022-11-20T00:54:36;101520.37;;;14.13;65.64
65659;BME280;60181;53.258;6.932;2022-11-20T00:59:04;101520.18;;;14.12;65.59
65659;BME280;60181;53.258;6.932;2022-11-20T01:03:33;101520.73;;;14.12;65.44
65659;BME280;60181;53.258;6.932;2022-11-20T01:08:00;101521.14;;;14.11;65.77
65659;BME280;60181;53.258;6.932;2022-11-20T01:12:28;101520.37;;;14.10;65.83
65659;BME280;60181;53.258;6.932;2022-11-20T01:16:56;101518.45;;;14.09;66.09
65659;BME280;60181;53.258;6.932;2022-11-20T01:21:28;101513.64;;;14.08;66.18
65659;BME280;60181;53.258;6.932;2022-11-20T01:25:52;101508.18;;;14.07;66.31
65659;BME280;60181;53.258;6.932;2022-11-20T01:30:20;101501.56;;;14.06;66.33
65659;BME280;60181;53.258;6.932;2022-11-20T01:34:48;101499.10;;;14.05;66.30
65659;BME280;60181;53.258;6.932;2022-11-20T01:39:20;101497.58;;;14.05;65.98
65659;BME280;60181;53.258;6.932;2022-11-20T01:43:44;101493.87;;;14.05;65.48
65659;BME280;60181;53.258;6.932;2022-11-20T01:48:12;101490.11;;;14.05;66.07
65659;BME280;60181;53.258;6.932;2022-11-20T01:52:48;101485.10;;;14.05;66.40
65659;BME280;60181;53.258;6.932;2022-11-20T01:57:08;101481.80;;;14.06;66.41
65659;BME280;60181;53.258;6.932;2022-11-20T02:01:36;101478.74;;;14.06;66.28
65659;BME280;60181;53.258;6.932;2022-11-20T02:06:10;101475.97;;;14.07;66.14
65659;BME280;60181;53.258;6.932;2022-11-20T02:10:33;101472.85;;;14.07;66.10
65659;BME280;60181;53.258;6.932;2022-11-20T02:15:00;101471.20;;;14.07;66.03
65659;BME280;60181;53.258;6.932;2022-11-20T02:19:28;101468.77;;;14.06;65.85
65659;BME280;60181;53.258;6.932;2022-11-20T02:24:03;101465.23;;;14.06;65.92
65659;BME280;60181;53.258;6.932;2022-11-20T02:28:25;101460.79;;;14.06;65.79
65659;BME280;60181;53.258;6.932;2022-11-20T02:32:52;101455.02;;;14.05;65.74
65659;BME280;60181;53.258;6.932;2022-11-20T02:37:20;101449.55;;;14.05;65.74
65659;BME280;60181;53.258;6.932;2022-11-20T02:41:48;101444.28;;;14.04;65.63
65659;BME280;60181;53.258;6.932;2022-11-20T02:46:16;101440.25;;;14.04;65.52
65659;BME280;60181;53.258;6.932;2022-11-20T02:50:44;101436.60;;;14.04;65.51
65659;BME280;60181;53.258;6.932;2022-11-20T02:55:12;101433.97;;;14.03;65.43
65659;BME280;60181;53.258;6.932;2022-11-20T02:59:40;101430.73;;;14.02;65.44
65659;BME280;60181;53.258;6.932;2022-11-20T03:04:08;101426.99;;;14.01;65.52
65659;BME280;60181;53.258;6.932;2022-11-20T03:08:36;101422.33;;;14.00;65.51
65659;BME280;60181;53.258;6.932;2022-11-20T03:13:04;101421.31;;;13.98;65.56
65659;BME280;60181;53.258;6.932;2022-11-20T03:17:32;101420.01;;;13.96;65.55
65659;BME280;60181;53.258;6.932;2022-11-20T03:22:00;101419.01;;;13.95;65.57
65659;BME280;60181;53.258;6.932;2022-11-20T03:26:28;101416.67;;;13.93;65.57
65659;BME280;60181;53.258;6.932;2022-11-20T03:30:56;101414.42;;;13.92;65.56
65659;BME280;60181;53.258;6.932;2022-11-20T03:35:24;101410.77;;;13.92;65.37
65659;BME280;60181;53.258;6.932;2022-11-20T03:39:52;101407.59;;;13.92;65.50
65659;BME280;60181;53.258;6.932;2022-11-20T03:44:20;101403.69;;;13.92;65.47
65659;BME280;60181;53.258;6.932;2022-11-20T03:48:48;101399.98;;;13.92;65.36
65659;BME280;60181;53.258;6.932;2022-11-20T03:53:16;101394.97;;;13.91;65.56
65659;BME280;60181;53.258;6.932;2022-11-20T03:57:44;101391.48;;;13.90;65.65
65659;BME280;60181;53.258;6.932;2022-11-20T04:02:12;101387.19;;;13.90;65.36
65659;BME280;60181;53.258;6.932;2022-11-20T04:06:40;101382.56;;;13.89;65.46
65659;BME280;60181;53.258;6.932;2022-11-20T04:11:14;101378.83;;;13.88;65.68
65659;BME280;60181;53.258;6.932;2022-11-20T04:15:36;101375.45;;;13.88;65.33
65659;BME280;60181;53.258;6.932;2022-11-20T04:20:04;101372.74;;;13.87;65.56
65659;BME280;60181;53.258;6.932;2022-11-20T04:24:32;101368.17;;;13.87;65.51
65659;BME280;60181;53.258;6.932;2022-11-20T04:29:00;101363.89;;;13.87;65.47
65659;BME280;60181;53.258;6.932;2022-11-20T04:33:28;101359.75;;;13.86;65.54
65659;BME280;60181;53.258;6.932;2022-11-20T04:37:56;101354.89;;;13.85;65.53
65659;BME280;60181;53.258;6.932;2022-11-20T04:42:24;101350.83;;;13.85;65.50
65659;BME280;60181;53.258;6.932;2022-11-20T04:46:52;101348.91;;;13.84;65.51
65659;BME280;60181;53.258;6.932;2022-11-20T04:51:20;101346.36;;;13.83;65.49
65659;BME280;60181;53.258;6.932;2022-11-20T04:55:48;101343.53;;;13.82;65.61
65659;BME280;60181;53.258;6.932;2022-11-20T05:00:16;101339.59;;;13.82;65.66
65659;BME280;60181;53.258;6.932;2022-11-20T05:04:44;101336.84;;;13.81;65.74
65659;BME280;60181;53.258;6.932;2022-11-20T05:09:12;101334.75;;;13.80;65.70
65659;BME280;60181;53.258;6.932;2022-11-20T05:13:40;101330.89;;;13.80;65.74
65659;BME280;60181;53.258;6.932;2022-11-20T05:18:08;101327.73;;;13.79;65.69
65659;BME280;60181;53.258;6.932;2022-11-20T05:22:36;101323.78;;;13.79;65.65
65659;BME280;60181;53.258;6.932;2022-11-20T05:27:04;101319.23;;;13.78;65.62
65659;BME280;60181;53.258;6.932;2022-11-20T05:31:32;101315.82;;;13.77;65.58
65659;BME280;60181;53.258;6.932;2022-11-20T05:36:00;101312.95;;;13.76;65.58
65659;BME280;60181;53.258;6.932;2022-11-20T05:40:28;101309.63;;;13.75;65.52
65659;BME280;60181;53.258;6.932;2022-11-20T05:44:56;101307.95;;;13.75;65.54
65659;BME280;60181;53.258;6.932;2022-11-20T05:49:24;101305.53;;;13.74;65.50
65659;BME280;60181;53.258;6.932;2022-11-20T05:53:52;101303.72;;;13.73;65.47
65659;BME280;60181;53.258;6.932;2022-11-20T05:58:20;101300.33;;;13.72;65.39
65659;BME280;60181;53.258;6.932;2022-11-20T06:02:48;101296.34;;;13.71;65.45
65659;BME280;60181;53.258;6.932;2022-11-20T06:07:16;101292.70;;;13.70;65.36
65659;BME280;60181;53.258;6.932;2022-11-20T06:11:44;101289.54;;;13.69;65.40
65659;BME280;60181;53.258;6.932;2022-11-20T06:16:13;101286.97;;;13.68;65.35
65659;BME280;60181;53.258;6.932;2022-11-20T06:20:39;101286.31;;;13.68;65.34
65659;BME280;60181;53.258;6.932;2022-11-20T06:25:07;101285.71;;;13.67;65.30
65659;BME280;60181;53.258;6.932;2022-11-20T06:29:35;101283.98;;;13.66;65.25
65659;BME280;60181;53.258;6.932;2022-11-20T06:34:04;101283.12;;;13.66;65.26
65659;BME280;60181;53.258;6.932;2022-11-20T06:38:32;101281.78;;;13.65;65.27
65659;BME280;60181;53.258;6.932;2022-11-20T06:42:59;101280.50;;;13.63;65.21
65659;BME280;60181;53.258;6.932;2022-11-20T06:47:27;101280.97;;;13.61;66.11
65659;BME280;60181;53.258;6.932;2022-11-20T06:51:55;101280.33;;;13.59;65.90
65659;BME280;60181;53.258;6.932;2022-11-20T06:56:23;101280.24;;;13.58;65.34
65659;BME280;60181;53.258;6.932;2022-11-20T07:00:51;101280.89;;;13.58;65.14
65659;BME280;60181;53.258;6.932;2022-11-20T07:05:19;101280.98;;;13.57;65.15
65659;BME280;60181;53.258;6.932;2022-11-20T07:09:47;101282.10;;;13.56;64.94
65659;BME280;60181;53.258;6.932;2022-11-20T07:14:15;101283.39;;;13.56;65.14
65659;BME280;60181;53.258;6.932;2022-11-20T07:18:43;101284.63;;;13.56;65.12
65659;BME280;60181;53.258;6.932;2022-11-20T07:23:11;101285.78;;;13.55;65.06
65659;BME280;60181;53.258;6.932;2022-11-20T07:27:39;101285.42;;;13.55;65.05
65659;BME280;60181;53.258;6.932;2022-11-20T07:32:07;101286.08;;;13.54;65.04
65659;BME280;60181;53.258;6.932;2022-11-20T07:36:35;101286.22;;;13.53;64.98
65659;BME280;60181;53.258;6.932;2022-11-20T07:41:04;101286.44;;;13.52;64.92
65659;BME280;60181;53.258;6.932;2022-11-20T07:45:31;101286.50;;;13.51;64.89
65659;BME280;60181;53.258;6.932;2022-11-20T07:49:59;101287.48;;;13.51;64.89
65659;BME280;60181;53.258;6.932;2022-11-20T07:54:27;101287.05;;;13.50;64.92
65659;BME280;60181;53.258;6.932;2022-11-20T07:58:55;101286.77;;;13.49;64.85
65659;BME280;60181;53.258;6.932;2022-11-20T08:03:23;101284.94;;;13.48;64.77
65659;BME280;60181;53.258;6.932;2022-11-20T08:07:51;101284.11;;;13.48;64.92
65659;BME280;60181;53.258;6.932;2022-11-20T08:12:20;101282.19;;;13.50;65.20
65659;BME280;60181;53.258;6.932;2022-11-20T08:16:48;101280.92;;;13.59;64.69
65659;BME280;60181;53.258;6.932;2022-11-20T08:21:15;101280.83;;;13.66;64.39
65659;BME280;60181;53.258;6.932;2022-11-20T08:25:43;101281.95;;;13.67;64.63
65659;BME280;60181;53.258;6.932;2022-11-20T08:30:12;101284.83;;;13.68;64.70
65659;BME280;60181;53.258;6.932;2022-11-20T08:34:39;101286.11;;;13.67;64.75
65659;BME280;60181;53.258;6.932;2022-11-20T08:39:07;101287.74;;;13.65;64.81
65659;BME280;60181;53.258;6.932;2022-11-20T08:43:35;101289.00;;;13.64;64.84
65659;BME280;60181;53.258;6.932;2022-11-20T08:48:04;101289.88;;;13.62;64.88
65659;BME280;60181;53.258;6.932;2022-11-20T08:52:31;101288.79;;;13.61;64.90
65659;BME280;60181;53.258;6.932;2022-11-20T08:56:59;101288.44;;;13.60;64.94
65659;BME280;60181;53.258;6.932;2022-11-20T09:01:28;101288.65;;;13.59;65.01
65659;BME280;60181;53.258;6.932;2022-11-20T09:05:59;101288.14;;;13.58;65.06
65659;BME280;60181;53.258;6.932;2022-11-20T09:10:23;101286.88;;;13.57;65.06
65659;BME280;60181;53.258;6.932;2022-11-20T09:14:51;101284.95;;;13.56;65.12
65659;BME280;60181;53.258;6.932;2022-11-20T09:19:19;101283.06;;;13.55;65.17
65659;BME280;60181;53.258;6.932;2022-11-20T09:23:47;101279.33;;;13.55;65.21
65659;BME280;60181;53.258;6.932;2022-11-20T09:28:15;101276.09;;;13.54;65.25
65659;BME280;60181;53.258;6.932;2022-11-20T09:32:43;101273.08;;;13.54;65.32
65659;BME280;60181;53.258;6.932;2022-11-20T09:37:11;101269.02;;;13.54;65.34
65659;BME280;60181;53.258;6.932;2022-11-20T09:46:09;101263.20;;;13.54;65.37
65659;BME280;60181;53.258;6.932;2022-11-20T09:55:03;101256.87;;;13.54;65.46
65659;BME280;60181;53.258;6.932;2022-11-20T09:59:40;101254.80;;;13.55;65.49
65659;BME280;60181;53.258;6.932;2022-11-20T10:04:13;101252.09;;;13.55;65.47
65659;BME280;60181;53.258;6.932;2022-11-20T10:08:40;101248.50;;;13.55;65.53
65659;BME280;60181;53.258;6.932;2022-11-20T10:13:05;101245.86;;;13.55;65.55
65659;BME280;60181;53.258;6.932;2022-11-20T10:21:57;101243.31;;;13.56;65.58
65659;BME280;60181;53.258;6.932;2022-11-20T10:26:21;101240.12;;;13.56;65.60
65659;BME280;60181;53.258;6.932;2022-11-20T10:30:48;101236.58;;;13.57;65.62
65659;BME280;60181;53.258;6.932;2022-11-20T10:48:39;101215.32;;;13.58;65.63
65659;BME280;60181;53.258;6.932;2022-11-20T10:53:19;101209.97;;;13.59;65.60
65659;BME280;60181;53.258;6.932;2022-11-20T10:57:45;101204.57;;;13.60;65.67
65659;BME280;60181;53.258;6.932;2022-11-20T11:02:14;101200.03;;;13.60;65.67
65659;BME280;60181;53.258;6.932;2022-11-20T11:06:35;101194.79;;;13.61;65.71
65659;BME280;60181;53.258;6.932;2022-11-20T11:11:00;101192.76;;;13.62;65.68
65659;BME280;60181;53.258;6.932;2022-11-20T11:20:02;101189.48;;;13.63;65.66
65659;BME280;60181;53.258;6.932;2022-11-20T11:24:27;101188.28;;;13.64;65.65
65659;BME280;60181;53.258;6.932;2022-11-20T11:28:58;101185.97;;;13.65;65.64
65659;BME280;60181;53.258;6.932;2022-11-20T11:33:20;101182.95;;;13.65;65.75
65659;BME280;60181;53.258;6.932;2022-11-20T11:37:47;101177.84;;;13.66;65.78
65659;BME280;60181;53.258;6.932;2022-11-20T11:42:18;101173.75;;;13.66;65.78
65659;BME280;60181;53.258;6.932;2022-11-20T11:46:44;101172.34;;;13.67;65.77
65659;BME280;60181;53.258;6.932;2022-11-20T11:51:11;101169.67;;;13.67;65.79
65659;BME280;60181;53.258;6.932;2022-11-20T11:55:43;101167.55;;;13.73;66.87
65659;BME280;60181;53.258;6.932;2022-11-20T12:00:12;101164.67;;;13.81;66.17
65659;BME280;60181;53.258;6.932;2022-11-20T12:04:44;101161.01;;;13.84;66.41
65659;BME280;60181;53.258;6.932;2022-11-20T12:09:04;101156.25;;;13.85;66.53
65659;BME280;60181;53.258;6.932;2022-11-20T12:17:59;101146.12;;;13.85;66.44
65659;BME280;60181;53.258;6.932;2022-11-20T12:44:54;101118.46;;;13.80;66.50
65659;BME280;60181;53.258;6.932;2022-11-20T12:58:23;101107.37;;;13.78;66.51
65659;BME280;60181;53.258;6.932;2022-11-20T13:07:08;101101.59;;;13.77;66.47
65659;BME280;60181;53.258;6.932;2022-11-20T13:11:43;101097.81;;;13.77;66.50
65659;BME280;60181;53.258;6.932;2022-11-20T13:20:31;101091.12;;;13.76;66.48
65659;BME280;60181;53.258;6.932;2022-11-20T13:24:59;101086.89;;;13.75;66.49
65659;BME280;60181;53.258;6.932;2022-11-20T13:29:27;101082.45;;;13.74;66.53
65659;BME280;60181;53.258;6.932;2022-11-20T13:33:55;101076.59;;;13.74;66.52
65659;BME280;60181;53.258;6.932;2022-11-20T13:38:23;101071.15;;;13.74;66.48
65659;BME280;60181;53.258;6.932;2022-11-20T13:42:55;101065.22;;;13.74;66.44
65659;BME280;60181;53.258;6.932;2022-11-20T13:47:22;101059.05;;;13.74;66.42
65659;BME280;60181;53.258;6.932;2022-11-20T13:51:47;101053.94;;;13.74;66.43
65659;BME280;60181;53.258;6.932;2022-11-20T14:00:44;101044.72;;;13.74;66.44
65659;BME280;60181;53.258;6.932;2022-11-20T14:05:20;101040.11;;;13.74;66.48
65659;BME280;60181;53.258;6.932;2022-11-20T14:09:48;101037.31;;;13.74;66.48
65659;BME280;60181;53.258;6.932;2022-11-20T14:14:13;101033.36;;;13.74;66.51
65659;BME280;60181;53.258;6.932;2022-11-20T14:18:35;101028.91;;;13.74;66.54
65659;BME280;60181;53.258;6.932;2022-11-20T14:23:03;101023.97;;;13.74;66.51
65659;BME280;60181;53.258;6.932;2022-11-20T14:27:33;101019.95;;;13.74;66.51
65659;BME280;60181;53.258;6.932;2022-11-20T14:31:59;101015.66;;;13.74;66.54
65659;BME280;60181;53.258;6.932;2022-11-20T14:36:27;101010.24;;;13.73;66.58
65659;BME280;60181;53.258;6.932;2022-11-20T14:41:05;101005.05;;;13.73;66.63
65659;BME280;60181;53.258;6.932;2022-11-20T14:45:23;100999.10;;;13.72;66.61
65659;BME280;60181;53.258;6.932;2022-11-20T14:49:51;100990.77;;;13.72;66.64
65659;BME280;60181;53.258;6.932;2022-11-20T14:54:20;100983.36;;;13.71;66.67
65659;BME280;60181;53.258;6.932;2022-11-20T14:58:54;100975.51;;;13.70;66.71
65659;BME280;60181;53.258;6.932;2022-11-20T15:03:15;100968.52;;;13.70;66.70
65659;BME280;60181;53.258;6.932;2022-11-20T15:07:44;100962.00;;;13.69;66.75
65659;BME280;60181;53.258;6.932;2022-11-20T15:12:15;100957.53;;;13.68;66.72
65659;BME280;60181;53.258;6.932;2022-11-20T15:16:39;100953.25;;;13.68;66.73
65659;BME280;60181;53.258;6.932;2022-11-20T15:21:10;100948.28;;;13.67;66.71
65659;BME280;60181;53.258;6.932;2022-11-20T15:25:35;100942.13;;;13.66;66.71
65659;BME280;60181;53.258;6.932;2022-11-20T15:30:07;100936.99;;;13.66;66.72
65659;BME280;60181;53.258;6.932;2022-11-20T15:34:31;100934.94;;;13.66;66.70
65659;BME280;60181;53.258;6.932;2022-11-20T15:38:59;100933.87;;;13.65;66.71
65659;BME280;60181;53.258;6.932;2022-11-20T15:43:27;100932.22;;;13.65;66.75
65659;BME280;60181;53.258;6.932;2022-11-20T15:47:55;100929.89;;;13.65;66.76
65659;BME280;60181;53.258;6.932;2022-11-20T15:52:23;100924.64;;;13.66;66.66
65659;BME280;60181;53.258;6.932;2022-11-20T15:56:51;100919.07;;;13.67;66.58
65659;BME280;60181;53.258;6.932;2022-11-20T16:01:19;100915.06;;;13.68;66.58
65659;BME280;60181;53.258;6.932;2022-11-20T16:05:47;100910.61;;;13.68;66.61
65659;BME280;60181;53.258;6.932;2022-11-20T16:10:15;100906.84;;;13.69;66.60
65659;BME280;60181;53.258;6.932;2022-11-20T16:14:43;100900.84;;;13.69;66.59
65659;BME280;60181;53.258;6.932;2022-11-20T16:19:11;100894.00;;;13.69;66.57
65659;BME280;60181;53.258;6.932;2022-11-20T16:23:39;100886.42;;;13.69;66.63
65659;BME280;60181;53.258;6.932;2022-11-20T16:28:07;100879.85;;;13.69;66.60
65659;BME280;60181;53.258;6.932;2022-11-20T16:32:35;100875.73;;;13.69;66.57
65659;BME280;60181;53.258;6.932;2022-11-20T16:37:03;100874.41;;;13.69;66.57
65659;BME280;60181;53.258;6.932;2022-11-20T16:41:31;100874.41;;;13.69;66.57
65659;BME280;60181;53.258;6.932;2022-11-20T16:45:59;100876.06;;;13.69;66.57
65659;BME280;60181;53.258;6.932;2022-11-20T16:50:27;100877.29;;;13.69;66.55
65659;BME280;60181;53.258;6.932;2022-11-20T16:54:55;100875.39;;;13.69;66.50
65659;BME280;60181;53.258;6.932;2022-11-20T16:59:23;100873.25;;;13.69;66.50
65659;BME280;60181;53.258;6.932;2022-11-20T17:03:57;100871.11;;;13.69;66.57
65659;BME280;60181;53.258;6.932;2022-11-20T17:08:19;100869.09;;;13.70;66.53
65659;BME280;60181;53.258;6.932;2022-11-20T17:12:47;100867.35;;;13.70;66.52
65659;BME280;60181;53.258;6.932;2022-11-20T17:17:15;100863.90;;;13.70;66.49
65659;BME280;60181;53.258;6.932;2022-11-20T17:21:43;100859.03;;;13.70;66.53
65659;BME280;60181;53.258;6.932;2022-11-20T17:26:14;100854.27;;;13.70;66.54
65659;BME280;60181;53.258;6.932;2022-11-20T17:30:39;100848.83;;;13.70;66.52
65659;BME280;60181;53.258;6.932;2022-11-20T17:35:07;100844.62;;;13.70;66.53
65659;BME280;60181;53.258;6.932;2022-11-20T17:39:34;100840.19;;;13.70;66.56
65659;BME280;60181;53.258;6.932;2022-11-20T17:44:03;100837.13;;;13.71;66.56
65659;BME280;60181;53.258;6.932;2022-11-20T17:48:31;100832.31;;;13.71;66.54
65659;BME280;60181;53.258;6.932;2022-11-20T17:52:58;100826.65;;;13.74;67.04
65659;BME280;60181;53.258;6.932;2022-11-20T17:57:26;100820.45;;;13.77;66.70
65659;BME280;60181;53.258;6.932;2022-11-20T18:01:54;100814.62;;;13.78;66.93
65659;BME280;60181;53.258;6.932;2022-11-20T18:06:23;100809.27;;;13.78;67.02
65659;BME280;60181;53.258;6.932;2022-11-20T18:10:50;100804.14;;;13.77;67.02
65659;BME280;60181;53.258;6.932;2022-11-20T18:15:18;100800.20;;;13.77;66.90
65659;BME280;60181;53.258;6.932;2022-11-20T18:19:47;100796.97;;;13.76;66.83
65659;BME280;60181;53.258;6.932;2022-11-20T18:24:14;100794.02;;;13.75;66.87
65659;BME280;60181;53.258;6.932;2022-11-20T18:28:43;100790.69;;;13.75;66.83
65659;BME280;60181;53.258;6.932;2022-11-20T18:33:10;100786.58;;;13.74;66.80
65659;BME280;60181;53.258;6.932;2022-11-20T18:37:38;100783.26;;;13.74;66.72
65659;BME280;60181;53.258;6.932;2022-11-20T18:42:09;100780.88;;;13.74;66.76
65659;BME280;60181;53.258;6.932;2022-11-20T18:46:34;100778.75;;;13.73;66.76
65659;BME280;60181;53.258;6.932;2022-11-20T18:51:05;100777.19;;;13.73;66.70
65659;BME280;60181;53.258;6.932;2022-11-20T18:55:30;100775.44;;;13.73;66.67
65659;BME280;60181;53.258;6.932;2022-11-20T18:59:58;100771.81;;;13.73;66.64
65659;BME280;60181;53.258;6.932;2022-11-20T19:04:26;100768.80;;;13.73;66.62
65659;BME280;60181;53.258;6.932;2022-11-20T19:08:54;100765.66;;;13.73;66.61
65659;BME280;60181;53.258;6.932;2022-11-20T19:13:22;100763.69;;;13.73;66.58
65659;BME280;60181;53.258;6.932;2022-11-20T19:17:50;100761.30;;;13.73;66.55
65659;BME280;60181;53.258;6.932;2022-11-20T19:22:18;100759.33;;;13.73;66.58
65659;BME280;60181;53.258;6.932;2022-11-20T19:26:46;100758.09;;;13.73;66.57
65659;BME280;60181;53.258;6.932;2022-11-20T19:31:15;100757.09;;;13.73;66.57
65659;BME280;60181;53.258;6.932;2022-11-20T19:35:42;100755.61;;;13.73;66.57
65659;BME280;60181;53.258;6.932;2022-11-20T19:40:10;100751.33;;;13.73;66.54
65659;BME280;60181;53.258;6.932;2022-11-20T19:44:38;100747.55;;;13.73;66.57
65659;BME280;60181;53.258;6.932;2022-11-20T19:49:07;100745.65;;;13.73;66.58
65659;BME280;60181;53.258;6.932;2022-11-20T19:53:34;100747.05;;;13.73;66.54
65659;BME280;60181;53.258;6.932;2022-11-20T19:58:02;100749.86;;;13.73;66.54
65659;BME280;60181;53.258;6.932;2022-11-20T20:02:30;100752.00;;;13.73;66.53
65659;BME280;60181;53.258;6.932;2022-11-20T20:06:58;100752.00;;;13.73;66.50
65659;BME280;60181;53.258;6.932;2022-11-20T20:11:27;100751.33;;;13.73;66.50
65659;BME280;60181;53.258;6.932;2022-11-20T20:15:54;100750.36;;;13.75;66.78
65659;BME280;60181;53.258;6.932;2022-11-20T20:20:22;100749.27;;;13.78;66.48
65659;BME280;60181;53.258;6.932;2022-11-20T20:24:50;100748.52;;;13.78;66.71
65659;BME280;60181;53.258;6.932;2022-11-20T20:29:18;100748.63;;;13.79;66.79
65659;BME280;60181;53.258;6.932;2022-11-20T20:33:46;100747.63;;;13.79;66.74
65659;BME280;60181;53.258;6.932;2022-11-20T20:38:14;100746.53;;;13.78;66.72
65659;BME280;60181;53.258;6.932;2022-11-20T20:42:42;100745.54;;;13.78;66.71
65659;BME280;60181;53.258;6.932;2022-11-20T20:47:10;100744.31;;;13.78;66.72
65659;BME280;60181;53.258;6.932;2022-11-20T20:51:38;100744.73;;;13.78;66.67
65659;BME280;60181;53.258;6.932;2022-11-20T20:56:06;100746.04;;;13.78;66.65
65659;BME280;60181;53.258;6.932;2022-11-20T21:00:34;100745.14;;;13.78;66.69
65659;BME280;60181;53.258;6.932;2022-11-20T21:05:03;100744.81;;;13.78;66.70
65659;BME280;60181;53.258;6.932;2022-11-20T21:09:30;100743.23;;;13.77;66.64
65659;BME280;60181;53.258;6.932;2022-11-20T21:13:58;100741.91;;;13.77;66.64
65659;BME280;60181;53.258;6.932;2022-11-20T21:18:26;100739.76;;;13.77;66.61
65659;BME280;60181;53.258;6.932;2022-11-20T21:22:54;100735.91;;;13.77;66.61
65659;BME280;60181;53.258;6.932;2022-11-20T21:27:22;100733.76;;;13.77;66.59
65659;BME280;60181;53.258;6.932;2022-11-20T21:31:50;100733.94;;;13.77;66.58
65659;BME280;60181;53.258;6.932;2022-11-20T21:36:19;100733.85;;;13.76;66.58
65659;BME280;60181;53.258;6.932;2022-11-20T21:40:46;100732.84;;;13.76;66.54
65659;BME280;60181;53.258;6.932;2022-11-20T21:45:14;100733.83;;;13.76;66.51
65659;BME280;60181;53.258;6.932;2022-11-20T21:49:42;100731.85;;;13.76;66.49
65659;BME280;60181;53.258;6.932;2022-11-20T21:54:10;100727.66;;;13.75;66.54
65659;BME280;60181;53.258;6.932;2022-11-20T21:58:38;100723.63;;;13.75;66.48
65659;BME280;60181;53.258;6.932;2022-11-20T22:03:06;100721.33;;;13.75;66.41
65659;BME280;60181;53.258;6.932;2022-11-20T22:07:34;100721.98;;;13.76;66.42
65659;BME280;60181;53.258;6.932;2022-11-20T22:12:02;100723.91;;;13.79;66.12
65659;BME280;60181;53.258;6.932;2022-11-20T22:16:31;100726.78;;;13.90;65.98
65659;BME280;60181;53.258;6.932;2022-11-20T22:21:05;100729.72;;;14.02;65.36
65659;BME280;60181;53.258;6.932;2022-11-20T22:25:26;100733.47;;;14.11;65.04
65659;BME280;60181;53.258;6.932;2022-11-20T22:29:54;100736.30;;;14.19;64.91
65659;BME280;60181;53.258;6.932;2022-11-20T22:34:22;100738.82;;;14.25;64.75
65659;BME280;60181;53.258;6.932;2022-11-20T22:38:50;100740.69;;;14.29;64.85
65659;BME280;60181;53.258;6.932;2022-11-20T22:43:18;100742.38;;;14.32;64.65
65659;BME280;60181;53.258;6.932;2022-11-20T22:47:46;100745.04;;;14.34;64.43
65659;BME280;60181;53.258;6.932;2022-11-20T22:52:14;100747.27;;;14.36;64.37
65659;BME280;60181;53.258;6.932;2022-11-20T22:56:42;100748.80;;;14.38;64.33
65659;BME280;60181;53.258;6.932;2022-11-20T23:01:17;100749.79;;;14.39;64.13
65659;BME280;60181;53.258;6.932;2022-11-20T23:05:38;100750.54;;;14.41;64.09
65659;BME280;60181;53.258;6.932;2022-11-20T23:10:06;100750.73;;;14.41;64.05
65659;BME280;60181;53.258;6.932;2022-11-20T23:14:34;100749.49;;;14.41;64.12
65659;BME280;60181;53.258;6.932;2022-11-20T23:19:03;100748.91;;;14.42;64.94
65659;BME280;60181;53.258;6.932;2022-11-20T23:23:30;100748.49;;;14.39;65.50
65659;BME280;60181;53.258;6.932;2022-11-20T23:27:58;100748.18;;;14.34;65.62
65659;BME280;60181;53.258;6.932;2022-11-20T23:32:26;100746.81;;;14.30;65.69
65659;BME280;60181;53.258;6.932;2022-11-20T23:36:54;100744.51;;;14.25;65.75
65659;BME280;60181;53.258;6.932;2022-11-20T23:41:22;100743.72;;;14.20;65.78
65659;BME280;60181;53.258;6.932;2022-11-20T23:45:51;100744.75;;;14.17;65.82
65659;BME280;60181;53.258;6.932;2022-11-20T23:50:18;100746.58;;;14.13;65.83
65659;BME280;60181;53.258;6.932;2022-11-20T23:54:46;100749.17;;;14.10;65.83
65659;BME280;60181;53.258;6.932;2022-11-20T23:59:14;100751.62;;;14.07;65.86
